createdAt,value
2022-11-07T00:00:16.183Z,14.65
2022-11-07T00:01:16.175Z,14.65
2022-11-07T00:02:16.699Z,14.68
2022-11-07T00:03:17.414Z,14.6
2022-11-07T00:04:16.236Z,14.7
2022-11-07T00:05:16.202Z,14.65
2022-11-07T00:06:16.220Z,14.53
2022-11-07T00:07:15.983Z,14.69
2022-11-07T00:08:16.278Z,14.65
2022-11-07T00:09:16.271Z,14.69
2022-11-07T00:10:16.040Z,14.62
2022-11-07T00:11:16.437Z,14.6
2022-11-07T00:12:16.334Z,14.59
2022-11-07T00:13:16.972Z,14.55
2022-11-07T00:14:16.124Z,14.58
2022-11-07T00:15:15.931Z,14.62
2022-11-07T00:16:16.157Z,14.48
2022-11-07T00:17:16.170Z,14.62
2022-11-07T00:18:16.468Z,14.59
2022-11-07T00:19:15.948Z,14.55
2022-11-07T00:20:16.528Z,14.54
2022-11-07T00:21:16.508Z,14.58
2022-11-07T00:22:16.529Z,14.59
2022-11-07T00:23:16.990Z,14.6
2022-11-07T00:24:16.307Z,14.59
2022-11-07T00:25:16.323Z,14.62
2022-11-07T00:26:16.616Z,14.59
2022-11-07T00:27:16.648Z,14.58
2022-11-07T00:28:16.647Z,14.62
2022-11-07T00:29:16.654Z,14.6
2022-11-07T00:30:16.169Z,14.63
2022-11-07T00:31:16.701Z,14.53
2022-11-07T00:32:16.465Z,14.47
2022-11-07T00:33:17.424Z,14.54
2022-11-07T00:34:16.499Z,14.5
2022-11-07T00:35:16.790Z,14.59
2022-11-07T00:36:16.847Z,14.6
2022-11-07T00:37:16.822Z,14.54
2022-11-07T00:38:16.831Z,14.59
2022-11-07T00:39:16.849Z,14.59
2022-11-07T00:40:16.876Z,14.54
2022-11-07T00:41:16.896Z,14.55
2022-11-07T00:42:16.644Z,14.48
2022-11-07T00:43:18.165Z,14.58
2022-11-07T00:44:16.937Z,14.55
2022-11-07T00:45:16.451Z,14.54
2022-11-07T00:46:16.921Z,14.55
2022-11-07T00:47:16.998Z,14.62
2022-11-07T00:48:16.759Z,14.5
2022-11-07T00:49:17.038Z,14.5
2022-11-07T00:50:17.062Z,14.48
2022-11-07T00:51:16.816Z,14.54
2022-11-07T00:52:17.144Z,14.55
2022-11-07T00:53:18.289Z,14.47
2022-11-07T00:54:17.141Z,14.47
2022-11-07T00:55:17.141Z,14.48
2022-11-07T00:56:16.918Z,14.5
2022-11-07T00:57:17.189Z,14.45
2022-11-07T00:58:19.222Z,14.47
2022-11-07T00:59:17.076Z,14.51
2022-11-07T01:00:17.053Z,14.45
2022-11-07T01:01:17.416Z,14.43
2022-11-07T01:02:17.723Z,14.43
2022-11-07T01:03:18.077Z,14.48
2022-11-07T01:04:17.065Z,14.44
2022-11-07T01:05:17.344Z,14.5
2022-11-07T01:06:17.091Z,14.44
2022-11-07T01:07:17.376Z,14.53
2022-11-07T01:08:17.189Z,14.37
2022-11-07T01:09:17.417Z,14.48
2022-11-07T01:10:17.451Z,14.47
2022-11-07T01:11:16.944Z,14.41
2022-11-07T01:12:17.227Z,14.53
2022-11-07T01:13:18.633Z,14.44
2022-11-07T01:14:17.509Z,14.48
2022-11-07T01:15:17.544Z,14.44
2022-11-07T01:16:17.537Z,14.58
2022-11-07T01:17:17.303Z,14.54
2022-11-07T01:18:17.321Z,14.5
2022-11-07T01:19:17.739Z,14.54
2022-11-07T01:20:17.517Z,14.45
2022-11-07T01:21:21.271Z,14.54
2022-11-07T01:22:17.271Z,14.43
2022-11-07T01:23:18.638Z,14.54
2022-11-07T01:24:17.648Z,14.36
2022-11-07T01:25:17.512Z,14.43
2022-11-07T01:26:17.566Z,14.55
2022-11-07T01:27:17.225Z,14.54
2022-11-07T01:28:17.772Z,14.55
2022-11-07T01:29:17.571Z,14.48
2022-11-07T01:30:17.799Z,14.47
2022-11-07T01:31:17.902Z,14.55
2022-11-07T01:32:17.572Z,14.51
2022-11-07T01:33:19.119Z,14.54
2022-11-07T01:34:17.612Z,14.54
2022-11-07T01:35:17.701Z,14.54
2022-11-07T01:36:17.918Z,14.44
2022-11-07T01:37:17.926Z,14.48
2022-11-07T01:38:17.947Z,14.44
2022-11-07T01:39:17.960Z,14.36
2022-11-07T01:40:17.836Z,14.5
2022-11-07T01:41:18.013Z,14.53
2022-11-07T01:42:18.015Z,14.53
2022-11-07T01:43:19.043Z,14.33
2022-11-07T01:44:18.052Z,14.48
2022-11-07T01:45:17.812Z,14.53
2022-11-07T01:46:18.298Z,14.47
2022-11-07T01:47:18.130Z,14.5
2022-11-07T01:48:17.875Z,14.51
2022-11-07T01:49:17.899Z,14.5
2022-11-07T01:50:17.908Z,14.44
2022-11-07T01:51:18.195Z,14.35
2022-11-07T01:52:17.957Z,14.36
2022-11-07T01:53:18.830Z,14.51
2022-11-07T01:54:18.245Z,14.5
2022-11-07T01:55:18.264Z,14.41
2022-11-07T01:56:18.321Z,14.41
2022-11-07T01:57:18.284Z,14.43
2022-11-07T01:58:17.806Z,14.29
2022-11-07T01:59:18.091Z,14.47
2022-11-07T02:00:18.346Z,14.43
2022-11-07T02:01:18.391Z,14.48
2022-11-07T02:02:18.608Z,14.41
2022-11-07T02:03:19.318Z,14.36
2022-11-07T02:04:18.172Z,14.29
2022-11-07T02:05:18.470Z,14.29
2022-11-07T02:06:18.475Z,14.4
2022-11-07T02:07:18.485Z,14.43
2022-11-07T02:08:18.505Z,14.43
2022-11-07T02:09:18.264Z,14.35
2022-11-07T02:10:18.531Z,14.26
2022-11-07T02:11:18.308Z,14.41
2022-11-07T02:12:18.621Z,14.37
2022-11-07T02:13:19.541Z,14.41
2022-11-07T02:14:18.361Z,14.37
2022-11-07T02:15:18.630Z,14.3
2022-11-07T02:16:18.646Z,14.36
2022-11-07T02:17:18.678Z,14.33
2022-11-07T02:18:18.675Z,14.33
2022-11-07T02:19:18.553Z,14.44
2022-11-07T02:20:18.461Z,14.37
2022-11-07T02:21:18.493Z,14.36
2022-11-07T02:22:18.762Z,14.29
2022-11-07T02:23:19.557Z,14.35
2022-11-07T02:24:18.794Z,14.36
2022-11-07T02:25:18.567Z,14.29
2022-11-07T02:26:18.833Z,14.36
2022-11-07T02:27:18.600Z,14.45
2022-11-07T02:28:18.923Z,14.28
2022-11-07T02:29:18.904Z,14.36
2022-11-07T02:30:18.651Z,14.35
2022-11-07T02:31:18.674Z,14.26
2022-11-07T02:32:18.956Z,14.33
2022-11-07T02:33:19.791Z,14.29
2022-11-07T02:34:18.727Z,14.43
2022-11-07T02:35:18.767Z,14.35
2022-11-07T02:36:19.014Z,14.35
2022-11-07T02:37:18.541Z,14.32
2022-11-07T02:38:18.814Z,14.35
2022-11-07T02:39:18.835Z,14.35
2022-11-07T02:40:18.839Z,14.35
2022-11-07T02:41:19.109Z,14.35
2022-11-07T02:42:18.879Z,14.28
2022-11-07T02:43:20.178Z,14.29
2022-11-07T02:44:19.280Z,14.29
2022-11-07T02:45:18.923Z,14.36
2022-11-07T02:46:19.263Z,14.26
2022-11-07T02:47:18.707Z,14.29
2022-11-07T02:48:18.994Z,14.18
2022-11-07T02:49:19.010Z,14.22
2022-11-07T02:50:19.291Z,14.28
2022-11-07T02:51:19.328Z,14.22
2022-11-07T02:52:18.812Z,14.35
2022-11-07T02:53:19.722Z,14.3
2022-11-07T02:54:19.362Z,14.28
2022-11-07T02:55:19.386Z,14.3
2022-11-07T02:56:19.137Z,14.26
2022-11-07T02:57:19.418Z,14.22
2022-11-07T02:58:19.425Z,14.28
2022-11-07T02:59:23.002Z,14.17
2022-11-07T03:00:19.496Z,14.25
2022-11-07T03:01:19.675Z,14.2
2022-11-07T03:02:19.678Z,14.22
2022-11-07T03:03:20.167Z,14.2
2022-11-07T03:04:19.540Z,14.18
2022-11-07T03:05:19.609Z,14.18
2022-11-07T03:06:19.379Z,14.23
2022-11-07T03:07:19.829Z,14.2
2022-11-07T03:08:19.622Z,14.17
2022-11-07T03:09:19.125Z,14.17
2022-11-07T03:10:19.392Z,14.18
2022-11-07T03:11:19.993Z,14.17
2022-11-07T03:12:19.695Z,14.14
2022-11-07T03:13:20.030Z,14.17
2022-11-07T03:14:19.767Z,14.14
2022-11-07T03:15:19.762Z,14.18
2022-11-07T03:16:19.792Z,14.12
2022-11-07T03:17:19.777Z,14.14
2022-11-07T03:18:19.805Z,14.11
2022-11-07T03:19:19.822Z,14.08
2022-11-07T03:20:19.585Z,14.1
2022-11-07T03:21:19.592Z,14.15
2022-11-07T03:22:19.621Z,14.04
2022-11-07T03:23:20.467Z,14.11
2022-11-07T03:24:19.909Z,14.12
2022-11-07T03:25:19.919Z,14.1
2022-11-07T03:26:19.952Z,14.04
2022-11-07T03:27:19.962Z,14.03
2022-11-07T03:28:19.466Z,14.07
2022-11-07T03:29:20.000Z,14.04
2022-11-07T03:30:20.022Z,14.03
2022-11-07T03:31:20.077Z,14
2022-11-07T03:32:20.076Z,14.04
2022-11-07T03:33:20.628Z,14.04
2022-11-07T03:34:20.093Z,13.97
2022-11-07T03:35:19.908Z,14.07
2022-11-07T03:36:19.887Z,14.1
2022-11-07T03:37:20.144Z,14.05
2022-11-07T03:38:20.164Z,14
2022-11-07T03:39:26.994Z,13.95
2022-11-07T03:40:19.943Z,14
2022-11-07T03:41:19.972Z,13.99
2022-11-07T03:42:20.243Z,13.97
2022-11-07T03:43:20.747Z,14
2022-11-07T03:44:20.025Z,13.99
2022-11-07T03:45:20.312Z,14.03
2022-11-07T03:46:20.360Z,13.96
2022-11-07T03:47:20.352Z,14.05
2022-11-07T03:48:20.369Z,13.99
2022-11-07T03:49:20.371Z,14.04
2022-11-07T03:50:20.392Z,14.03
2022-11-07T03:51:20.155Z,13.97
2022-11-07T03:52:20.159Z,13.97
2022-11-07T03:53:28.518Z,13.96
2022-11-07T03:54:20.206Z,14
2022-11-07T03:55:20.634Z,13.99
2022-11-07T03:56:20.240Z,13.96
2022-11-07T03:57:20.509Z,14.03
2022-11-07T03:58:20.537Z,14.03
2022-11-07T03:59:20.295Z,14.04
2022-11-07T04:00:20.368Z,13.97
2022-11-07T04:01:20.534Z,13.99
2022-11-07T04:02:20.933Z,13.95
2022-11-07T04:03:20.909Z,13.96
2022-11-07T04:04:20.748Z,13.93
2022-11-07T04:05:20.408Z,13.89
2022-11-07T04:06:20.758Z,13.85
2022-11-07T04:07:20.440Z,13.86
2022-11-07T04:08:20.467Z,13.87
2022-11-07T04:09:20.742Z,13.89
2022-11-07T04:10:20.504Z,13.79
2022-11-07T04:11:20.801Z,13.9
2022-11-07T04:12:20.643Z,13.9
2022-11-07T04:13:21.311Z,13.83
2022-11-07T04:14:20.979Z,13.83
2022-11-07T04:15:20.589Z,13.85
2022-11-07T04:16:22.685Z,13.83
2022-11-07T04:17:20.907Z,13.85
2022-11-07T04:18:20.637Z,13.85
2022-11-07T04:19:20.982Z,13.79
2022-11-07T04:20:20.979Z,13.85
2022-11-07T04:21:20.959Z,13.87
2022-11-07T04:22:20.731Z,13.89
2022-11-07T04:23:21.374Z,13.83
2022-11-07T04:24:21.011Z,13.83
2022-11-07T04:25:20.522Z,13.89
2022-11-07T04:26:20.916Z,13.86
2022-11-07T04:27:20.832Z,13.81
2022-11-07T04:28:20.840Z,13.81
2022-11-07T04:29:20.845Z,13.75
2022-11-07T04:30:20.909Z,13.83
2022-11-07T04:31:21.145Z,13.78
2022-11-07T04:32:20.643Z,13.83
2022-11-07T04:33:21.533Z,13.77
2022-11-07T04:34:21.195Z,13.72
2022-11-07T04:35:20.983Z,13.79
2022-11-07T04:36:21.006Z,13.7
2022-11-07T04:37:20.733Z,13.75
2022-11-07T04:38:21.009Z,13.75
2022-11-07T04:39:21.294Z,13.75
2022-11-07T04:40:21.307Z,13.72
2022-11-07T04:41:21.325Z,13.74
2022-11-07T04:42:21.505Z,13.77
2022-11-07T04:43:21.912Z,13.74
2022-11-07T04:44:21.392Z,13.75
2022-11-07T04:45:21.144Z,13.75
2022-11-07T04:46:21.210Z,13.71
2022-11-07T04:47:21.432Z,13.74
2022-11-07T04:48:21.452Z,13.79
2022-11-07T04:49:21.483Z,13.75
2022-11-07T04:50:21.231Z,13.75
2022-11-07T04:51:21.537Z,13.74
2022-11-07T04:52:21.551Z,13.77
2022-11-07T04:53:21.681Z,13.75
2022-11-07T04:54:21.573Z,13.77
2022-11-07T04:55:21.578Z,13.74
2022-11-07T04:56:21.344Z,13.74
2022-11-07T04:57:21.626Z,13.78
2022-11-07T04:58:21.643Z,13.83
2022-11-07T04:59:21.779Z,13.78
2022-11-07T05:00:21.431Z,13.75
2022-11-07T05:01:21.791Z,13.72
2022-11-07T05:02:21.737Z,13.71
2022-11-07T05:03:22.456Z,13.77
2022-11-07T05:04:21.751Z,13.78
2022-11-07T05:05:21.772Z,13.77
2022-11-07T05:06:21.266Z,13.81
2022-11-07T05:07:21.834Z,13.74
2022-11-07T05:08:21.841Z,13.74
2022-11-07T05:09:21.840Z,13.75
2022-11-07T05:10:21.601Z,13.7
2022-11-07T05:11:21.619Z,13.72
2022-11-07T05:12:21.897Z,13.71
2022-11-07T05:13:22.338Z,13.75
2022-11-07T05:14:21.681Z,13.71
2022-11-07T05:15:22.018Z,13.74
2022-11-07T05:16:21.736Z,13.7
2022-11-07T05:17:27.790Z,13.78
2022-11-07T05:18:22.021Z,13.71
2022-11-07T05:19:21.757Z,13.71
2022-11-07T05:20:22.033Z,13.79
2022-11-07T05:21:22.067Z,13.75
2022-11-07T05:22:21.815Z,13.7
2022-11-07T05:23:23.092Z,13.74
2022-11-07T05:24:21.876Z,13.68
2022-11-07T05:25:21.616Z,13.7
2022-11-07T05:26:22.143Z,13.71
2022-11-07T05:27:21.911Z,13.9
2022-11-07T05:28:35.492Z,13.71
2022-11-07T05:29:22.206Z,13.7
2022-11-07T05:30:22.228Z,13.7
2022-11-07T05:31:22.323Z,13.79
2022-11-07T05:32:22.261Z,13.75
2022-11-07T05:33:22.547Z,13.78
2022-11-07T05:34:22.293Z,13.79
2022-11-07T05:35:22.324Z,13.71
2022-11-07T05:36:22.342Z,13.72
2022-11-07T05:37:22.352Z,13.74
2022-11-07T05:38:22.116Z,13.68
2022-11-07T05:39:22.417Z,13.67
2022-11-07T05:40:22.248Z,13.72
2022-11-07T05:41:22.448Z,13.75
2022-11-07T05:42:22.187Z,13.68
2022-11-07T05:43:23.005Z,13.71
2022-11-07T05:44:22.475Z,13.7
2022-11-07T05:45:22.494Z,13.68
2022-11-07T05:46:22.807Z,13.74
2022-11-07T05:47:22.560Z,13.78
2022-11-07T05:48:22.293Z,13.72
2022-11-07T05:49:22.310Z,13.75
2022-11-07T05:50:22.326Z,13.7
2022-11-07T05:51:22.092Z,13.72
2022-11-07T05:52:22.651Z,13.7
2022-11-07T05:53:22.890Z,13.72
2022-11-07T05:54:22.399Z,13.63
2022-11-07T05:55:22.705Z,13.71
2022-11-07T05:56:22.721Z,13.72
2022-11-07T05:57:22.713Z,13.74
2022-11-07T05:58:22.738Z,13.67
2022-11-07T05:59:22.746Z,13.63
2022-11-07T06:00:22.766Z,13.71
2022-11-07T06:01:22.571Z,13.65
2022-11-07T06:02:23.293Z,13.59
2022-11-07T06:03:24.148Z,13.68
2022-11-07T06:04:22.599Z,13.67
2022-11-07T06:05:28.716Z,13.65
2022-11-07T06:06:22.880Z,13.54
2022-11-07T06:07:22.640Z,13.65
2022-11-07T06:08:22.907Z,13.59
2022-11-07T06:09:22.927Z,13.59
2022-11-07T06:10:22.955Z,13.52
2022-11-07T06:11:22.740Z,13.6
2022-11-07T06:12:23.260Z,13.6
2022-11-07T06:13:23.275Z,13.65
2022-11-07T06:14:22.777Z,13.53
2022-11-07T06:15:22.785Z,13.63
2022-11-07T06:16:22.799Z,13.59
2022-11-07T06:17:23.069Z,13.67
2022-11-07T06:18:23.657Z,13.54
2022-11-07T06:19:23.220Z,13.56
2022-11-07T06:20:23.132Z,13.56
2022-11-07T06:21:23.089Z,13.68
2022-11-07T06:22:22.659Z,13.62
2022-11-07T06:23:23.574Z,13.6
2022-11-07T06:24:22.954Z,13.57
2022-11-07T06:25:23.219Z,13.62
2022-11-07T06:26:23.260Z,13.56
2022-11-07T06:27:23.142Z,13.54
2022-11-07T06:28:23.393Z,13.53
2022-11-07T06:29:23.029Z,13.54
2022-11-07T06:30:23.319Z,13.57
2022-11-07T06:31:22.814Z,13.52
2022-11-07T06:32:23.092Z,13.54
2022-11-07T06:33:24.230Z,13.56
2022-11-07T06:34:22.867Z,13.49
2022-11-07T06:35:23.500Z,13.54
2022-11-07T06:36:23.170Z,13.52
2022-11-07T06:37:22.930Z,13.59
2022-11-07T06:38:23.216Z,13.54
2022-11-07T06:39:23.477Z,13.63
2022-11-07T06:40:23.244Z,13.54
2022-11-07T06:41:23.252Z,13.57
2022-11-07T06:42:23.529Z,13.59
2022-11-07T06:43:23.924Z,13.5
2022-11-07T06:44:23.346Z,13.5
2022-11-07T06:45:23.585Z,13.62
2022-11-07T06:46:23.870Z,13.6
2022-11-07T06:47:23.617Z,13.56
2022-11-07T06:48:23.651Z,13.5
2022-11-07T06:49:23.662Z,13.56
2022-11-07T06:50:23.673Z,13.52
2022-11-07T06:51:23.461Z,13.53
2022-11-07T06:52:23.705Z,13.54
2022-11-07T06:53:24.277Z,13.53
2022-11-07T06:54:23.757Z,13.59
2022-11-07T06:55:23.492Z,13.59
2022-11-07T06:56:23.530Z,13.52
2022-11-07T06:57:23.558Z,13.56
2022-11-07T06:58:23.562Z,13.6
2022-11-07T06:59:23.607Z,13.57
2022-11-07T07:00:23.943Z,13.57
2022-11-07T07:01:24.113Z,13.53
2022-11-07T07:03:00.573Z,13.53
2022-11-07T07:03:24.397Z,13.49
2022-11-07T07:04:23.681Z,13.63
2022-11-07T07:05:25.896Z,13.6
2022-11-07T07:06:23.710Z,13.54
2022-11-07T07:07:24.274Z,13.54
2022-11-07T07:08:24.001Z,13.5
2022-11-07T07:09:24.027Z,13.62
2022-11-07T07:10:23.785Z,13.63
2022-11-07T07:11:23.547Z,13.54
2022-11-07T07:12:23.821Z,13.54
2022-11-07T07:13:24.247Z,13.59
2022-11-07T07:14:23.856Z,13.57
2022-11-07T07:15:24.257Z,13.6
2022-11-07T07:16:24.269Z,13.62
2022-11-07T07:17:23.905Z,13.59
2022-11-07T07:18:24.181Z,13.57
2022-11-07T07:19:23.951Z,13.54
2022-11-07T07:20:24.231Z,13.56
2022-11-07T07:21:24.239Z,13.59
2022-11-07T07:22:24.016Z,13.57
2022-11-07T07:23:24.926Z,13.63
2022-11-07T07:24:24.050Z,13.67
2022-11-07T07:25:24.313Z,13.59
2022-11-07T07:26:24.076Z,13.6
2022-11-07T07:27:23.836Z,13.57
2022-11-07T07:28:24.109Z,13.68
2022-11-07T07:29:24.118Z,13.63
2022-11-07T07:30:24.155Z,13.65
2022-11-07T07:31:24.277Z,13.56
2022-11-07T07:32:24.303Z,13.53
2022-11-07T07:33:24.202Z,13.68
2022-11-07T07:34:24.215Z,13.72
2022-11-07T07:35:24.248Z,13.71
2022-11-07T07:36:25.780Z,13.74
2022-11-07T07:37:24.268Z,13.72
2022-11-07T07:38:24.291Z,13.67
2022-11-07T07:39:24.442Z,13.7
2022-11-07T07:40:24.593Z,13.7
2022-11-07T07:41:24.337Z,13.68
2022-11-07T07:42:24.369Z,13.7
2022-11-07T07:43:24.635Z,13.67
2022-11-07T07:44:24.656Z,13.74
2022-11-07T07:45:24.169Z,13.75
2022-11-07T07:46:24.914Z,13.7
2022-11-07T07:47:24.565Z,13.78
2022-11-07T07:48:24.875Z,13.7
2022-11-07T07:49:24.750Z,13.71
2022-11-07T07:50:24.770Z,13.72
2022-11-07T07:51:24.786Z,13.78
2022-11-07T07:52:24.553Z,13.74
2022-11-07T07:53:24.849Z,13.75
2022-11-07T07:54:24.841Z,13.78
2022-11-07T07:55:24.976Z,13.72
2022-11-07T07:56:24.622Z,13.74
2022-11-07T07:57:24.629Z,13.77
2022-11-07T07:58:24.918Z,13.74
2022-11-07T07:59:24.673Z,13.74
2022-11-07T08:00:24.959Z,13.77
2022-11-07T08:01:25.433Z,13.75
2022-11-07T08:02:24.984Z,13.86
2022-11-07T08:03:24.880Z,13.83
2022-11-07T08:04:25.140Z,13.78
2022-11-07T08:05:25.048Z,13.77
2022-11-07T08:06:25.084Z,13.87
2022-11-07T08:07:25.086Z,13.87
2022-11-07T08:08:25.088Z,13.83
2022-11-07T08:09:25.260Z,13.92
2022-11-07T08:10:47.312Z,13.86
2022-11-07T08:11:25.267Z,13.85
2022-11-07T08:12:25.172Z,13.87
2022-11-07T08:13:24.929Z,13.87
2022-11-07T08:14:24.943Z,13.89
2022-11-07T08:15:24.965Z,13.86
2022-11-07T08:16:24.991Z,13.86
2022-11-07T08:17:25.000Z,13.89
2022-11-07T08:18:25.283Z,13.85
2022-11-07T08:19:25.159Z,13.99
2022-11-07T08:20:25.530Z,13.96
2022-11-07T08:21:25.337Z,13.87
2022-11-07T08:22:25.354Z,13.96
2022-11-07T08:23:26.082Z,13.99
2022-11-07T08:24:25.392Z,13.97
2022-11-07T08:25:25.149Z,13.89
2022-11-07T08:26:25.428Z,13.97
2022-11-07T08:27:25.563Z,13.97
2022-11-07T08:28:25.244Z,13.97
2022-11-07T08:29:25.474Z,14.04
2022-11-07T08:30:25.580Z,13.97
2022-11-07T08:31:25.262Z,14.05
2022-11-07T08:32:25.289Z,14.04
2022-11-07T08:33:25.720Z,13.95
2022-11-07T08:34:25.572Z,13.97
2022-11-07T08:35:25.623Z,13.97
2022-11-07T08:36:25.507Z,13.97
2022-11-07T08:37:25.372Z,14.03
2022-11-07T08:38:25.759Z,14
2022-11-07T08:39:25.403Z,13.93
2022-11-07T08:40:25.731Z,13.99
2022-11-07T08:41:27.381Z,14
2022-11-07T08:42:25.464Z,13.96
2022-11-07T08:43:25.795Z,14
2022-11-07T08:44:25.504Z,14
2022-11-07T08:45:25.766Z,13.95
2022-11-07T08:46:25.805Z,13.96
2022-11-07T08:47:25.812Z,13.99
2022-11-07T08:48:26.011Z,14.03
2022-11-07T08:49:25.857Z,14.04
2022-11-07T08:50:25.860Z,14
2022-11-07T08:51:25.663Z,13.95
2022-11-07T08:52:25.924Z,14.04
2022-11-07T08:53:26.088Z,13.99
2022-11-07T08:54:25.940Z,14.05
2022-11-07T08:55:25.958Z,14
2022-11-07T08:56:25.979Z,14
2022-11-07T08:57:25.490Z,14.12
2022-11-07T08:58:32.339Z,14.1
2022-11-07T08:59:26.065Z,14.07
2022-11-07T09:00:25.914Z,14.08
2022-11-07T09:01:26.468Z,14.1
2022-11-07T09:03:50.582Z,14.12
2022-11-07T09:04:06.401Z,14.14
2022-11-07T09:05:05.951Z,14.14
2022-11-07T09:06:06.320Z,14.18
2022-11-07T09:07:06.264Z,14.2
2022-11-07T09:08:06.275Z,14.2
2022-11-07T09:09:06.269Z,14.23
2022-11-07T09:10:06.030Z,14.26
2022-11-07T09:11:06.050Z,14.29
2022-11-07T09:12:06.320Z,14.3
2022-11-07T09:13:06.111Z,14.28
2022-11-07T09:14:06.367Z,14.32
2022-11-07T09:15:06.414Z,14.28
2022-11-07T09:16:06.404Z,14.3
2022-11-07T09:17:06.420Z,14.32
2022-11-07T09:18:06.193Z,14.43
2022-11-07T09:19:05.939Z,14.36
2022-11-07T09:20:06.485Z,14.35
2022-11-07T09:21:06.489Z,14.33
2022-11-07T09:22:06.253Z,14.3
2022-11-07T09:23:06.301Z,14.37
2022-11-07T09:24:06.571Z,14.5
2022-11-07T09:25:06.315Z,14.37
2022-11-07T09:26:06.598Z,14.4
2022-11-07T09:27:06.613Z,14.58
2022-11-07T09:28:06.391Z,14.47
2022-11-07T09:29:06.396Z,14.44
2022-11-07T09:30:06.655Z,14.44
2022-11-07T09:31:06.466Z,14.54
2022-11-07T09:32:46.984Z,14.51
2022-11-07T09:33:06.481Z,14.53
2022-11-07T09:34:06.226Z,14.55
2022-11-07T09:35:09.599Z,14.58
2022-11-07T09:36:06.776Z,14.55
2022-11-07T09:37:06.802Z,14.54
2022-11-07T09:38:06.810Z,14.59
2022-11-07T09:39:06.930Z,14.55
2022-11-07T09:40:06.888Z,14.59
2022-11-07T09:41:06.624Z,14.59
2022-11-07T09:42:06.632Z,14.66
2022-11-07T09:43:06.665Z,14.66
2022-11-07T09:44:09.580Z,14.59
2022-11-07T09:45:06.953Z,14.63
2022-11-07T09:46:06.961Z,14.7
2022-11-07T09:47:07.055Z,14.72
2022-11-07T09:48:06.745Z,14.66
2022-11-07T09:49:07.032Z,14.69
2022-11-07T09:50:07.048Z,14.69
2022-11-07T09:51:06.825Z,14.77
2022-11-07T09:52:06.865Z,14.73
2022-11-07T09:53:06.588Z,14.69
2022-11-07T09:54:07.119Z,14.69
2022-11-07T09:55:07.163Z,14.7
2022-11-07T09:56:07.004Z,14.81
2022-11-07T09:57:09.932Z,14.69
2022-11-07T09:58:06.926Z,14.77
2022-11-07T09:59:14.154Z,14.69
2022-11-07T10:00:07.233Z,14.68
2022-11-07T10:01:07.215Z,14.77
2022-11-07T10:02:06.892Z,14.62
2022-11-07T10:03:07.350Z,14.77
2022-11-07T10:04:30.058Z,14.72
2022-11-07T10:05:07.294Z,14.7
2022-11-07T10:06:07.080Z,14.68
2022-11-07T10:07:07.101Z,14.69
2022-11-07T10:08:07.535Z,14.79
2022-11-07T10:09:07.394Z,14.68
2022-11-07T10:10:07.157Z,14.77
2022-11-07T10:11:07.524Z,14.65
2022-11-07T10:12:07.479Z,14.72
2022-11-07T10:13:07.479Z,14.79
2022-11-07T10:14:07.494Z,14.78
2022-11-07T10:15:06.992Z,14.73
2022-11-07T10:16:07.557Z,14.73
2022-11-07T10:17:07.703Z,14.68
2022-11-07T10:18:07.557Z,14.79
2022-11-07T10:19:07.807Z,14.68
2022-11-07T10:20:07.664Z,14.79
2022-11-07T10:21:41.716Z,14.81
2022-11-07T10:22:07.487Z,14.77
2022-11-07T10:23:07.242Z,14.72
2022-11-07T10:24:07.418Z,14.65
2022-11-07T10:25:07.542Z,14.68
2022-11-07T10:26:07.458Z,14.73
2022-11-07T10:27:07.541Z,14.7
2022-11-07T10:28:07.831Z,14.72
2022-11-07T10:29:07.265Z,14.69
2022-11-07T10:30:07.297Z,14.63
2022-11-07T10:31:07.549Z,14.7
2022-11-07T10:32:07.836Z,14.6
2022-11-07T10:33:07.839Z,14.66
2022-11-07T10:34:07.613Z,14.55
2022-11-07T10:35:07.912Z,14.63
2022-11-07T10:36:08.536Z,14.6
2022-11-07T10:37:07.660Z,14.58
2022-11-07T10:38:07.682Z,14.54
2022-11-07T10:39:07.701Z,14.66
2022-11-07T10:40:14.125Z,14.65
2022-11-07T10:41:07.739Z,14.63
2022-11-07T10:42:07.768Z,14.63
2022-11-07T10:43:07.812Z,14.54
2022-11-07T10:44:08.248Z,14.66
2022-11-07T10:45:08.573Z,14.59
2022-11-07T10:46:08.099Z,14.7
2022-11-07T10:47:08.079Z,14.7
2022-11-07T10:48:07.902Z,14.66
2022-11-07T10:49:08.131Z,14.73
2022-11-07T10:50:07.661Z,14.68
2022-11-07T10:51:07.961Z,14.77
2022-11-07T10:52:07.949Z,14.72
2022-11-07T10:53:07.967Z,14.65
2022-11-07T10:54:08.254Z,14.78
2022-11-07T10:55:08.286Z,14.79
2022-11-07T10:56:08.278Z,14.82
2022-11-07T10:57:08.324Z,14.82
2022-11-07T10:58:08.329Z,14.82
2022-11-07T10:59:08.103Z,14.82
2022-11-07T11:00:08.406Z,14.84
2022-11-07T11:01:08.720Z,14.81
2022-11-07T11:02:08.585Z,14.79
2022-11-07T11:03:08.244Z,14.77
2022-11-07T11:04:08.431Z,14.82
2022-11-07T11:05:08.198Z,14.84
2022-11-07T11:06:08.206Z,14.84
2022-11-07T11:07:08.991Z,14.73
2022-11-07T11:08:08.245Z,14.79
2022-11-07T11:09:08.528Z,14.69
2022-11-07T11:10:08.030Z,14.85
2022-11-07T11:11:08.297Z,14.73
2022-11-07T11:12:08.583Z,14.86
2022-11-07T11:13:08.341Z,14.89
2022-11-07T11:14:08.363Z,14.91
2022-11-07T11:15:08.411Z,14.99
2022-11-07T11:16:10.756Z,14.91
2022-11-07T11:17:08.703Z,14.89
2022-11-07T11:18:08.451Z,14.88
2022-11-07T11:19:08.464Z,14.86
2022-11-07T11:20:08.481Z,14.89
2022-11-07T11:21:08.745Z,14.94
2022-11-07T11:22:14.076Z,14.85
2022-11-07T11:23:08.566Z,14.89
2022-11-07T11:24:08.552Z,14.85
2022-11-07T11:25:08.842Z,14.97
2022-11-07T11:26:08.579Z,14.88
2022-11-07T11:27:08.604Z,14.86
2022-11-07T11:28:08.896Z,14.96
2022-11-07T11:29:08.386Z,14.91
2022-11-07T11:30:08.682Z,14.99
2022-11-07T11:31:08.462Z,14.88
2022-11-07T11:32:08.982Z,14.88
2022-11-07T11:33:08.997Z,14.99
2022-11-07T11:34:08.491Z,14.94
2022-11-07T11:35:09.019Z,14.88
2022-11-07T11:36:09.042Z,14.91
2022-11-07T11:37:09.061Z,14.99
2022-11-07T11:38:09.078Z,14.92
2022-11-07T11:39:09.120Z,14.94
2022-11-07T11:40:08.864Z,14.91
2022-11-07T11:41:15.408Z,14.94
2022-11-07T11:42:09.157Z,14.88
2022-11-07T11:43:09.180Z,14.97
2022-11-07T11:44:08.942Z,14.89
2022-11-07T11:45:09.217Z,15
2022-11-07T11:46:09.218Z,14.94
2022-11-07T11:47:09.417Z,14.89
2022-11-07T11:48:09.300Z,14.96
2022-11-07T11:49:09.445Z,14.88
2022-11-07T11:50:09.091Z,14.88
2022-11-07T11:51:09.055Z,14.92
2022-11-07T11:52:09.353Z,14.88
2022-11-07T11:53:09.107Z,14.88
2022-11-07T11:54:09.387Z,14.89
2022-11-07T11:55:09.436Z,14.91
2022-11-07T11:56:09.165Z,14.85
2022-11-07T11:57:09.431Z,14.88
2022-11-07T11:58:09.468Z,14.88
2022-11-07T11:59:09.483Z,14.85
2022-11-07T12:00:09.499Z,14.78
2022-11-07T12:01:09.655Z,14.79
2022-11-07T12:02:09.692Z,14.86
2022-11-07T12:03:09.589Z,14.79
2022-11-07T12:04:13.085Z,14.85
2022-11-07T12:05:09.599Z,14.86
2022-11-07T12:06:09.612Z,14.88
2022-11-07T12:07:09.367Z,14.88
2022-11-07T12:08:09.652Z,14.86
2022-11-07T12:09:12.566Z,14.85
2022-11-07T12:10:09.689Z,14.84
2022-11-07T12:11:09.740Z,14.89
2022-11-07T12:12:09.733Z,14.84
2022-11-07T12:13:09.733Z,14.88
2022-11-07T12:14:09.520Z,14.85
2022-11-07T12:15:09.786Z,14.84
2022-11-07T12:16:09.545Z,14.81
2022-11-07T12:17:09.820Z,14.91
2022-11-07T12:18:09.593Z,14.86
2022-11-07T12:19:09.637Z,14.89
2022-11-07T12:20:09.940Z,14.82
2022-11-07T12:21:09.899Z,14.92
2022-11-07T12:22:09.668Z,14.91
2022-11-07T12:23:09.936Z,14.91
2022-11-07T12:24:09.684Z,14.88
2022-11-07T12:25:09.715Z,14.91
2022-11-07T12:26:09.747Z,14.85
2022-11-07T12:27:09.777Z,14.89
2022-11-07T12:28:09.768Z,14.96
2022-11-07T12:29:10.052Z,14.88
2022-11-07T12:30:10.069Z,14.92
2022-11-07T12:31:09.830Z,14.86
2022-11-07T12:32:09.859Z,14.97
2022-11-07T12:33:10.127Z,14.91
2022-11-07T12:34:10.148Z,14.92
2022-11-07T12:35:10.188Z,14.85
2022-11-07T12:36:10.214Z,14.89
2022-11-07T12:37:09.972Z,14.86
2022-11-07T12:38:09.712Z,14.84
2022-11-07T12:39:09.979Z,14.94
2022-11-07T12:40:09.996Z,14.89
2022-11-07T12:41:10.148Z,14.88
2022-11-07T12:42:10.303Z,14.85
2022-11-07T12:43:10.425Z,14.86
2022-11-07T12:44:10.088Z,14.88
2022-11-07T12:45:10.359Z,14.92
2022-11-07T12:46:10.116Z,14.86
2022-11-07T12:47:10.487Z,14.85
2022-11-07T12:48:17.458Z,14.92
2022-11-07T12:49:10.173Z,14.85
2022-11-07T12:50:10.461Z,14.88
2022-11-07T12:51:10.497Z,14.89
2022-11-07T12:52:10.510Z,14.88
2022-11-07T12:53:10.502Z,14.85
2022-11-07T12:54:16.466Z,14.86
2022-11-07T12:55:10.550Z,14.85
2022-11-07T12:56:10.580Z,14.89
2022-11-07T12:57:10.063Z,14.84